Airfield :
LOGIN :

Register | Disclaimer

   EN    FR    IT 

 










Legend :    VFR   Marginal VFR   IFR   Intensive IFR   Very Intensive IFR
Visi :
Ceiling :
>= 8 km
>= 3000ft
5 to 8 km
1000 to 3000 ft
1500m to 5 km
500 to 1000 ft
800 to 1500m
200 to 500 ft
< 800m
< 200 ft
Symbols :   Thunderstorms  Fog  Heavy snow  Heavy precipitations  Wind > 20 kt
SIGMETs :     Misc.  Thunderstorms  Icing  Turbulence  Mountain Waves  Volcanic Ashes






- Airport Elevation : 1197 ft
- IATA code : SPM


ETAD - Spangdahlem Ab

CURRENT METAR :
  • 200457Z AUTO 20013KT 6000 BR OVC002 04/04 A3009 RMK AO2 RAE56 SLP193 $

EXPIRED METARs :
  • 200443Z AUTO 20013KT 8000 -RA BR OVC002 04/04 A3010 RMK AO2 RAE02RAB43 SLP197 $
  • 200402Z AUTO 20014KT 9999 OVC002 04/04 A3010 RMK AO2 RAE02 SLP195 $
  • 200356Z AUTO 20014KT 9999 -RA OVC002 04/04 A3010 RMK AO2 RAB34E48RAB50 SLP195 P0001 T00420041 $
  • 200334Z AUTO 20013KT 8000 -RA BR OVC002 04/04 A3011 RMK AO2 RAB34 SLP199 $
  • 200326Z AUTO 20012KT 9000 BR OVC002 04/04 A3011 RMK AO2 SLP199 $
  • 200256Z AUTO 20013KT 9999 OVC003 04/04 A3011 RMK AO2 RAB21E33 SLP199 P0000 60000 T00400039 57017 $

TAF TAF ETAD
Valid from the 20 at 05:00 until the 21 at 11:00 UTC


200500Z 2005/2111 22012G20KT 9999 BKN002 OVC010 620202 QNH3004INS
TEMPO 2005/2006 6000 -RA BR BKN005
BECMG 2009/2010 21015G25KT 9999 BKN015 QNH2994INS
BECMG 2019/2020 24015G30KT 8000 -SHRA BKN018 610209 520002 QNH2994INS
BECMG 2100/2101 28015G25KT 9999 NSW BKN025 QNH3012INS
BECMG 2105/2106 25010G15KT 9999 SCT020 QNH3028INS TX07/2014Z TN01/2105Z



MET'MAP, your aeronautical weather chart ! - Copyright ORBIFLY December 2007 - Disclaimer

ORBIFLY MET'MAP TEAM :

Programming & Development : Alexandra Zaïnal
Concept & original design : Baudouin d'Aumeries
Assistance for programming : Marc-Olivier Méhu
Technical & hardware support : Manuel Goepfert

Contact : metmap@orbifly.com




SOURCES & CREDITS :

   NOAA